sensor_id;sensor_type;location;lat;lon;timestamp;pressure;altitude;pressure_sealevel;temperature;humidity
71057;BME280;58380;48.312;9.246;2023-03-13T07:33:41;92920.81;;;9.52;88.59
71057;BME280;58380;48.312;9.246;2023-03-13T07:36:06;92914.97;;;9.65;87.93
71057;BME280;58380;48.312;9.246;2023-03-13T07:38:33;92907.59;;;9.62;88.17
71057;BME280;58380;48.312;9.246;2023-03-13T07:40:59;92890.53;;;9.49;88.24
71057;BME280;58380;48.312;9.246;2023-03-13T07:43:25;92893.34;;;9.63;87.97
71057;BME280;58380;48.312;9.246;2023-03-13T07:46:00;92909.38;;;9.77;87.51
71057;BME280;58380;48.312;9.246;2023-03-13T07:48:33;92917.00;;;9.83;87.73
71057;BME280;58380;48.312;9.246;2023-03-13T07:51:10;92923.56;;;9.91;87.56
71057;BME280;58380;48.312;9.246;2023-03-13T07:53:44;92914.06;;;9.90;87.84
71057;BME280;58380;48.312;9.246;2023-03-13T07:56:13;92923.25;;;9.98;87.86
71057;BME280;58380;48.312;9.246;2023-03-13T07:58:41;92899.78;;;10.01;87.43
71057;BME280;58380;48.312;9.246;2023-03-13T08:01:19;92892.16;;;10.00;87.96
71057;BME280;58380;48.312;9.246;2023-03-13T08:03:47;92902.59;;;10.15;87.55
71057;BME280;58380;48.312;9.246;2023-03-13T08:06:19;92877.59;;;10.07;87.83
71057;BME280;58380;48.312;9.246;2023-03-13T08:08:49;92894.66;;;10.20;87.70
71057;BME280;58380;48.312;9.246;2023-03-13T08:11:18;92882.56;;;10.19;87.94
71057;BME280;58380;48.312;9.246;2023-03-13T08:13:45;92858.63;;;10.05;88.25
71057;BME280;58380;48.312;9.246;2023-03-13T08:16:14;92883.34;;;10.20;88.47
71057;BME280;58380;48.312;9.246;2023-03-13T08:18:43;92889.69;;;10.19;88.53
71057;BME280;58380;48.312;9.246;2023-03-13T08:21:12;92871.72;;;10.21;88.49
71057;BME280;58380;48.312;9.246;2023-03-13T08:23:40;92876.97;;;10.31;88.59
71057;BME280;58380;48.312;9.246;2023-03-13T08:26:18;92861.41;;;10.29;88.94
71057;BME280;58380;48.312;9.246;2023-03-13T08:28:47;92868.00;;;10.32;88.82
71057;BME280;58380;48.312;9.246;2023-03-13T08:31:21;92862.94;;;10.35;88.44
71057;BME280;58380;48.312;9.246;2023-03-13T08:33:49;92821.44;;;10.07;88.78
71057;BME280;58380;48.312;9.246;2023-03-13T08:36:33;92856.63;;;10.36;88.24
71057;BME280;58380;48.312;9.246;2023-03-13T08:39:21;92856.31;;;10.38;88.08
71057;BME280;58380;48.312;9.246;2023-03-13T08:41:46;92782.97;;;10.01;87.75
71057;BME280;58380;48.312;9.246;2023-03-13T08:44:14;92854.75;;;10.37;87.48
71057;BME280;58380;48.312;9.246;2023-03-13T08:46:44;92794.38;;;9.96;87.52
71057;BME280;58380;48.312;9.246;2023-03-13T08:49:11;92819.25;;;10.19;87.46
71057;BME280;58380;48.312;9.246;2023-03-13T08:51:37;92840.53;;;10.33;87.51
71057;BME280;58380;48.312;9.246;2023-03-13T08:54:04;92832.78;;;10.47;86.56
71057;BME280;58380;48.312;9.246;2023-03-13T08:56:31;92831.84;;;10.67;86.66
71057;BME280;58380;48.312;9.246;2023-03-13T08:58:59;92813.16;;;10.58;85.73
71057;BME280;58380;48.312;9.246;2023-03-13T09:01:28;92827.28;;;10.72;85.83
71057;BME280;58380;48.312;9.246;2023-03-13T09:03:55;92839.53;;;10.92;84.67
71057;BME280;58380;48.312;9.246;2023-03-13T09:06:21;92760.72;;;10.51;85.88
71057;BME280;58380;48.312;9.246;2023-03-13T09:08:46;92749.63;;;10.54;83.90
71057;BME280;58380;48.312;9.246;2023-03-13T09:11:18;92822.16;;;11.10;83.11
71057;BME280;58380;48.312;9.246;2023-03-13T09:13:46;92814.44;;;11.19;83.03
71057;BME280;58380;48.312;9.246;2023-03-13T09:16:21;92810.59;;;11.30;82.21
71057;BME280;58380;48.312;9.246;2023-03-13T09:18:49;92813.41;;;11.39;81.35
71057;BME280;58380;48.312;9.246;2023-03-13T09:21:18;92819.09;;;11.51;80.48
71057;BME280;58380;48.312;9.246;2023-03-13T09:23:45;92802.78;;;11.44;80.62
71057;BME280;58380;48.312;9.246;2023-03-13T09:26:11;92832.13;;;11.66;79.78
71057;BME280;58380;48.312;9.246;2023-03-13T09:28:39;92811.69;;;11.72;79.70
71057;BME280;58380;48.312;9.246;2023-03-13T09:31:12;92828.03;;;11.98;77.95
71057;BME280;58380;48.312;9.246;2023-03-13T09:33:40;92712.31;;;11.33;76.35
71057;BME280;58380;48.312;9.246;2023-03-13T09:47:13;92824.16;;;12.28;72.84
71057;BME280;58380;48.312;9.246;2023-03-13T09:49:51;92768.69;;;12.04;71.80
71057;BME280;58380;48.312;9.246;2023-03-13T09:52:24;92858.63;;;12.42;71.15
71057;BME280;58380;48.312;9.246;2023-03-13T09:55:19;92807.78;;;12.26;71.62
71057;BME280;58380;48.312;9.246;2023-03-13T09:58:05;92835.81;;;12.46;70.87
71057;BME280;58380;48.312;9.246;2023-03-13T10:01:00;92835.06;;;12.60;70.38
71057;BME280;58380;48.312;9.246;2023-03-13T10:03:42;92843.66;;;12.70;70.21
71057;BME280;58380;48.312;9.246;2023-03-13T10:06:19;92828.38;;;12.81;68.85
71057;BME280;58380;48.312;9.246;2023-03-13T10:08:47;92810.41;;;12.78;68.59
71057;BME280;58380;48.312;9.246;2023-03-13T10:14:23;92797.50;;;12.90;68.37
71057;BME280;58380;48.312;9.246;2023-03-13T10:19:56;92800.09;;;13.23;67.66
71057;BME280;58380;48.312;9.246;2023-03-13T10:22:27;92820.38;;;13.14;67.44
71057;BME280;58380;48.312;9.246;2023-03-13T10:24:58;92810.28;;;13.16;68.43
71057;BME280;58380;48.312;9.246;2023-03-13T10:27:42;92796.63;;;13.23;67.74
71057;BME280;58380;48.312;9.246;2023-03-13T10:30:34;92801.88;;;13.42;66.79
71057;BME280;58380;48.312;9.246;2023-03-13T10:35:38;92796.75;;;13.45;66.76
71057;BME280;58380;48.312;9.246;2023-03-13T10:38:19;92797.25;;;13.61;66.16
71057;BME280;58380;48.312;9.246;2023-03-13T10:41:39;92788.50;;;13.61;65.21
71057;BME280;58380;48.312;9.246;2023-03-13T10:44:04;92770.91;;;13.65;64.29
71057;BME280;58380;48.312;9.246;2023-03-13T10:46:40;92725.34;;;13.63;64.27
71057;BME280;58380;48.312;9.246;2023-03-13T10:49:19;92760.22;;;13.92;63.44
71057;BME280;58380;48.312;9.246;2023-03-13T10:54:33;92727.34;;;13.93;63.06
71057;BME280;58380;48.312;9.246;2023-03-13T10:59:51;92721.44;;;13.82;62.87
71057;BME280;58380;48.312;9.246;2023-03-13T11:02:26;92671.31;;;13.36;62.26
71057;BME280;58380;48.312;9.246;2023-03-13T11:04:57;92752.72;;;14.08;62.08
71057;BME280;58380;48.312;9.246;2023-03-13T11:07:35;92700.69;;;13.98;61.87
71057;BME280;58380;48.312;9.246;2023-03-13T11:12:55;92683.13;;;14.11;61.71
71057;BME280;58380;48.312;9.246;2023-03-13T11:15:30;92730.91;;;14.56;60.25
71057;BME280;58380;48.312;9.246;2023-03-13T11:18:15;92723.47;;;14.67;59.82
71057;BME280;58380;48.312;9.246;2023-03-13T11:20:47;92663.44;;;14.35;60.66
71057;BME280;58380;48.312;9.246;2023-03-13T11:23:28;92581.94;;;14.04;60.49
71057;BME280;58380;48.312;9.246;2023-03-13T11:26:30;92709.81;;;14.91;58.77
71057;BME280;58380;48.312;9.246;2023-03-13T11:29:23;92614.47;;;14.50;59.69
71057;BME280;58380;48.312;9.246;2023-03-13T11:32:04;92563.47;;;14.30;60.38
71057;BME280;58380;48.312;9.246;2023-03-13T11:34:46;92628.19;;;14.74;56.97
71057;BME280;58380;48.312;9.246;2023-03-13T11:37:32;92610.66;;;14.64;58.33
71057;BME280;58380;48.312;9.246;2023-03-13T11:40:19;92673.75;;;15.07;58.51
71057;BME280;58380;48.312;9.246;2023-03-13T11:43:19;92543.81;;;14.31;57.36
71057;BME280;58380;48.312;9.246;2023-03-13T11:46:14;92659.13;;;15.36;58.34
71057;BME280;58380;48.312;9.246;2023-03-13T11:52:00;92650.72;;;15.69;57.67
71057;BME280;58380;48.312;9.246;2023-03-13T11:54:54;92653.53;;;15.55;57.85
71057;BME280;58380;48.312;9.246;2023-03-13T11:57:29;92642.41;;;15.44;58.17
71057;BME280;58380;48.312;9.246;2023-03-13T12:03:10;92629.88;;;15.62;56.18
71057;BME280;58380;48.312;9.246;2023-03-13T12:05:48;92612.09;;;15.71;56.21
71057;BME280;58380;48.312;9.246;2023-03-13T12:08:30;92541.19;;;15.41;54.35
71057;BME280;58380;48.312;9.246;2023-03-13T12:13:41;92479.91;;;14.94;54.36
71057;BME280;58380;48.312;9.246;2023-03-13T12:16:16;92531.19;;;15.29;53.94
71057;BME280;58380;48.312;9.246;2023-03-13T12:18:47;92511.81;;;15.28;54.66
71057;BME280;58380;48.312;9.246;2023-03-13T12:21:49;92593.28;;;16.03;54.21
71057;BME280;58380;48.312;9.246;2023-03-13T12:24:31;92575.38;;;16.21;50.78
71057;BME280;58380;48.312;9.246;2023-03-13T12:27:11;92571.88;;;16.29;50.35
71057;BME280;58380;48.312;9.246;2023-03-13T12:29:50;92558.56;;;16.29;52.13
71057;BME280;58380;48.312;9.246;2023-03-13T12:35:07;92551.50;;;16.80;52.93
71057;BME280;58380;48.312;9.246;2023-03-13T12:37:49;92552.56;;;16.79;53.67
71057;BME280;58380;48.312;9.246;2023-03-13T12:43:30;92521.78;;;16.60;55.30
71057;BME280;58380;48.312;9.246;2023-03-13T12:48:59;92520.44;;;16.75;55.60
71057;BME280;58380;48.312;9.246;2023-03-13T12:52:06;92515.41;;;16.83;54.07
71057;BME280;58380;48.312;9.246;2023-03-13T13:00:39;92455.56;;;16.50;55.61
71057;BME280;58380;48.312;9.246;2023-03-13T13:03:21;92487.06;;;16.69;54.92
71057;BME280;58380;48.312;9.246;2023-03-13T13:08:25;92458.53;;;16.70;53.26
71057;BME280;58380;48.312;9.246;2023-03-13T13:10:53;92466.00;;;16.85;52.80
71057;BME280;58380;48.312;9.246;2023-03-13T13:13:28;92453.19;;;16.99;51.98
71057;BME280;58380;48.312;9.246;2023-03-13T13:16:05;92405.69;;;16.80;51.56
71057;BME280;58380;48.312;9.246;2023-03-13T13:18:40;92423.13;;;17.11;51.69
71057;BME280;58380;48.312;9.246;2023-03-13T13:23:39;92421.09;;;17.29;50.93
71057;BME280;58380;48.312;9.246;2023-03-13T13:28:57;92383.59;;;17.13;50.67
71057;BME280;58380;48.312;9.246;2023-03-13T13:36:53;92408.34;;;17.47;51.05
71057;BME280;58380;48.312;9.246;2023-03-13T13:39:39;92416.72;;;17.45;51.91
71057;BME280;58380;48.312;9.246;2023-03-13T13:45:20;92393.19;;;17.27;53.35
71057;BME280;58380;48.312;9.246;2023-03-13T13:47:50;92396.09;;;17.34;52.41
71057;BME280;58380;48.312;9.246;2023-03-13T14:01:44;92369.72;;;16.66;54.81
71057;BME280;58380;48.312;9.246;2023-03-13T14:04:32;92382.78;;;16.58;55.45
71057;BME280;58380;48.312;9.246;2023-03-13T14:07:11;92378.44;;;16.54;55.58
71057;BME280;58380;48.312;9.246;2023-03-13T14:09:53;92365.56;;;16.56;56.21
71057;BME280;58380;48.312;9.246;2023-03-13T14:12:36;92346.28;;;16.38;55.45
71057;BME280;58380;48.312;9.246;2023-03-13T14:15:12;92360.16;;;16.44;56.73
71057;BME280;58380;48.312;9.246;2023-03-13T14:17:44;92353.47;;;16.58;56.60
71057;BME280;58380;48.312;9.246;2023-03-13T14:20:25;92343.75;;;16.63;56.06
71057;BME280;58380;48.312;9.246;2023-03-13T14:22:56;92353.81;;;16.78;55.89
71057;BME280;58380;48.312;9.246;2023-03-13T14:25:27;92355.94;;;16.85;56.15
71057;BME280;58380;48.312;9.246;2023-03-13T14:28:04;92337.50;;;16.79;54.98
71057;BME280;58380;48.312;9.246;2023-03-13T14:30:29;92342.19;;;16.83;55.22
71057;BME280;58380;48.312;9.246;2023-03-13T14:32:54;92334.63;;;16.85;55.00
71057;BME280;58380;48.312;9.246;2023-03-13T14:35:20;92312.28;;;16.56;55.21
71057;BME280;58380;48.312;9.246;2023-03-13T14:37:51;92319.50;;;16.34;56.28
71057;BME280;58380;48.312;9.246;2023-03-13T14:40:29;92320.63;;;16.33;57.40
71057;BME280;58380;48.312;9.246;2023-03-13T14:42:59;92326.53;;;16.39;56.45
71057;BME280;58380;48.312;9.246;2023-03-13T14:45:34;92313.34;;;16.43;56.90
71057;BME280;58380;48.312;9.246;2023-03-13T14:48:31;92287.16;;;16.24;56.33
71057;BME280;58380;48.312;9.246;2023-03-13T14:51:19;92307.88;;;16.18;57.06
71057;BME280;58380;48.312;9.246;2023-03-13T14:53:56;92295.50;;;15.92;57.60
71057;BME280;58380;48.312;9.246;2023-03-13T14:56:34;92294.41;;;15.72;58.23
71057;BME280;58380;48.312;9.246;2023-03-13T14:59:15;92306.91;;;15.72;58.67
71057;BME280;58380;48.312;9.246;2023-03-13T15:01:42;92267.63;;;15.69;58.89
71057;BME280;58380;48.312;9.246;2023-03-13T15:04:07;92289.88;;;15.94;58.60
71057;BME280;58380;48.312;9.246;2023-03-13T15:06:33;92258.91;;;15.89;58.44
71057;BME280;58380;48.312;9.246;2023-03-13T15:09:21;92266.56;;;16.12;57.64
71057;BME280;58380;48.312;9.246;2023-03-13T15:11:58;92277.56;;;16.31;57.77
71057;BME280;58380;48.312;9.246;2023-03-13T15:14:39;92241.81;;;16.53;56.38
71057;BME280;58380;48.312;9.246;2023-03-13T15:19:40;92251.97;;;17.18;54.57
71057;BME280;58380;48.312;9.246;2023-03-13T15:22:11;92236.53;;;17.36;55.28
71057;BME280;58380;48.312;9.246;2023-03-13T15:24:38;92204.63;;;17.39;55.31
71057;BME280;58380;48.312;9.246;2023-03-13T15:27:14;92213.81;;;17.66;53.49
71057;BME280;58380;48.312;9.246;2023-03-13T15:29:41;92182.16;;;17.53;53.06
71057;BME280;58380;48.312;9.246;2023-03-13T15:32:15;92202.69;;;17.89;53.34
71057;BME280;58380;48.312;9.246;2023-03-13T15:34:46;92185.06;;;18.13;52.45
71057;BME280;58380;48.312;9.246;2023-03-13T15:37:11;92170.25;;;18.15;51.01
71057;BME280;58380;48.312;9.246;2023-03-13T15:39:37;92188.66;;;18.32;51.30
71057;BME280;58380;48.312;9.246;2023-03-13T15:42:03;92178.47;;;18.38;51.35
71057;BME280;58380;48.312;9.246;2023-03-13T15:44:28;92173.16;;;18.10;50.57
71057;BME280;58380;48.312;9.246;2023-03-13T15:46:54;92135.47;;;17.99;51.06
71057;BME280;58380;48.312;9.246;2023-03-13T15:49:19;92160.66;;;17.74;51.21
71057;BME280;58380;48.312;9.246;2023-03-13T15:51:44;92163.78;;;17.76;51.81
71057;BME280;58380;48.312;9.246;2023-03-13T15:54:10;92147.00;;;17.75;51.03
71057;BME280;58380;48.312;9.246;2023-03-13T15:56:36;92136.00;;;17.64;51.51
71057;BME280;58380;48.312;9.246;2023-03-13T15:59:10;92141.28;;;17.77;51.46
71057;BME280;58380;48.312;9.246;2023-03-13T16:01:37;92129.03;;;17.48;52.45
71057;BME280;58380;48.312;9.246;2023-03-13T16:04:03;92121.94;;;17.39;52.11
71057;BME280;58380;48.312;9.246;2023-03-13T16:06:29;92095.19;;;17.23;52.56
71057;BME280;58380;48.312;9.246;2023-03-13T16:09:00;92103.88;;;17.20;52.98
71057;BME280;58380;48.312;9.246;2023-03-13T16:11:28;92108.53;;;17.11;52.90
71057;BME280;58380;48.312;9.246;2023-03-13T16:13:54;92106.78;;;16.91;53.79
71057;BME280;58380;48.312;9.246;2023-03-13T16:16:23;92108.63;;;16.66;54.09
71057;BME280;58380;48.312;9.246;2023-03-13T16:18:53;92098.19;;;16.48;54.72
71057;BME280;58380;48.312;9.246;2023-03-13T16:21:24;92086.09;;;16.51;54.95
71057;BME280;58380;48.312;9.246;2023-03-13T16:23:52;92082.63;;;16.38;55.34
71057;BME280;58380;48.312;9.246;2023-03-13T16:26:23;92073.63;;;16.30;56.57
71057;BME280;58380;48.312;9.246;2023-03-13T16:28:51;92042.53;;;15.98;55.91
71057;BME280;58380;48.312;9.246;2023-03-13T16:31:21;92054.50;;;16.04;56.45
71057;BME280;58380;48.312;9.246;2023-03-13T16:33:49;92071.13;;;16.01;56.67
71057;BME280;58380;48.312;9.246;2023-03-13T16:36:18;92069.13;;;15.98;57.17
71057;BME280;58380;48.312;9.246;2023-03-13T16:38:49;92055.66;;;15.82;57.08
71057;BME280;58380;48.312;9.246;2023-03-13T16:41:20;92045.81;;;15.61;57.40
71057;BME280;58380;48.312;9.246;2023-03-13T16:43:48;92046.34;;;15.54;58.28
71057;BME280;58380;48.312;9.246;2023-03-13T16:46:20;92045.84;;;15.40;57.62
71057;BME280;58380;48.312;9.246;2023-03-13T16:48:51;92029.72;;;15.24;58.24
71057;BME280;58380;48.312;9.246;2023-03-13T16:51:19;92015.47;;;15.08;57.91
71057;BME280;58380;48.312;9.246;2023-03-13T16:53:51;92023.75;;;15.06;58.43
71057;BME280;58380;48.312;9.246;2023-03-13T16:56:34;92022.63;;;15.07;58.58
71057;BME280;58380;48.312;9.246;2023-03-13T16:59:04;92007.94;;;14.89;58.57
71057;BME280;58380;48.312;9.246;2023-03-13T17:01:31;91991.66;;;14.70;58.55
71057;BME280;58380;48.312;9.246;2023-03-13T17:03:58;92007.09;;;14.76;58.61
71057;BME280;58380;48.312;9.246;2023-03-13T17:06:26;92017.41;;;14.78;59.12
71057;BME280;58380;48.312;9.246;2023-03-13T17:08:54;91996.47;;;14.55;59.53
71057;BME280;58380;48.312;9.246;2023-03-13T17:11:21;92008.31;;;14.58;59.28
71057;BME280;58380;48.312;9.246;2023-03-13T17:13:49;92006.28;;;14.55;60.26
71057;BME280;58380;48.312;9.246;2023-03-13T17:16:22;92004.78;;;14.36;60.15
71057;BME280;58380;48.312;9.246;2023-03-13T17:18:50;91959.38;;;14.08;59.88
71057;BME280;58380;48.312;9.246;2023-03-13T17:21:20;91983.94;;;14.26;60.18
71057;BME280;58380;48.312;9.246;2023-03-13T17:23:51;91984.88;;;14.21;60.05
71057;BME280;58380;48.312;9.246;2023-03-13T17:26:22;91982.44;;;14.08;60.42
71057;BME280;58380;48.312;9.246;2023-03-13T17:28:52;91983.25;;;14.08;60.57
71057;BME280;58380;48.312;9.246;2023-03-13T17:31:20;91983.84;;;14.05;60.57
71057;BME280;58380;48.312;9.246;2023-03-13T17:33:47;91945.13;;;13.83;61.02
71057;BME280;58380;48.312;9.246;2023-03-13T17:36:17;91950.72;;;13.81;61.12
71057;BME280;58380;48.312;9.246;2023-03-13T17:38:49;91942.97;;;13.76;60.98
71057;BME280;58380;48.312;9.246;2023-03-13T17:41:19;91952.16;;;13.70;61.71
71057;BME280;58380;48.312;9.246;2023-03-13T17:43:47;91960.00;;;13.67;62.28
71057;BME280;58380;48.312;9.246;2023-03-13T17:48:43;91904.59;;;13.35;62.84
71057;BME280;58380;48.312;9.246;2023-03-13T17:53:47;91913.63;;;13.26;63.25
71057;BME280;58380;48.312;9.246;2023-03-13T17:56:22;91912.22;;;13.20;63.44
71057;BME280;58380;48.312;9.246;2023-03-13T17:58:53;91907.91;;;13.06;63.82
71057;BME280;58380;48.312;9.246;2023-03-13T18:01:24;91885.63;;;12.99;64.09
71057;BME280;58380;48.312;9.246;2023-03-13T18:03:52;91847.53;;;12.73;64.05
71057;BME280;58380;48.312;9.246;2023-03-13T18:06:19;91897.00;;;12.99;64.48
71057;BME280;58380;48.312;9.246;2023-03-13T18:08:49;91878.31;;;12.87;64.49
71057;BME280;58380;48.312;9.246;2023-03-13T18:11:15;91872.09;;;12.83;64.27
71057;BME280;58380;48.312;9.246;2023-03-13T18:13:45;91892.19;;;12.92;64.49
71057;BME280;58380;48.312;9.246;2023-03-13T18:16:17;91890.47;;;12.88;64.73
71057;BME280;58380;48.312;9.246;2023-03-13T18:18:52;91891.44;;;12.83;64.75
71057;BME280;58380;48.312;9.246;2023-03-13T18:21:20;91893.00;;;12.76;65.61
71057;BME280;58380;48.312;9.246;2023-03-13T18:23:46;91879.13;;;12.61;65.63
71057;BME280;58380;48.312;9.246;2023-03-13T18:26:19;91878.50;;;12.64;65.73
71057;BME280;58380;48.312;9.246;2023-03-13T18:28:53;91863.75;;;12.46;65.96
71057;BME280;58380;48.312;9.246;2023-03-13T18:31:24;91858.59;;;12.32;66.55
71057;BME280;58380;48.312;9.246;2023-03-13T18:33:53;91861.41;;;12.18;66.74
71057;BME280;58380;48.312;9.246;2023-03-13T18:36:22;91879.75;;;12.32;66.80
71057;BME280;58380;48.312;9.246;2023-03-13T18:38:48;91879.75;;;12.32;67.06
71057;BME280;58380;48.312;9.246;2023-03-13T18:41:14;91865.13;;;12.08;67.36
71057;BME280;58380;48.312;9.246;2023-03-13T18:43:41;91886.75;;;12.19;67.32
71057;BME280;58380;48.312;9.246;2023-03-13T18:46:12;91869.16;;;12.15;67.65
71057;BME280;58380;48.312;9.246;2023-03-13T18:48:46;91902.19;;;12.26;67.47
71057;BME280;58380;48.312;9.246;2023-03-13T18:51:12;91902.50;;;12.33;67.71
71057;BME280;58380;48.312;9.246;2023-03-13T18:53:39;91876.00;;;12.07;67.77
71057;BME280;58380;48.312;9.246;2023-03-13T18:56:11;91916.66;;;12.28;67.73
71057;BME280;58380;48.312;9.246;2023-03-13T18:58:40;91905.56;;;12.18;67.93
71057;BME280;58380;48.312;9.246;2023-03-13T19:01:05;91899.69;;;12.21;67.85
71057;BME280;58380;48.312;9.246;2023-03-13T19:03:31;91902.31;;;12.21;67.89
71057;BME280;58380;48.312;9.246;2023-03-13T19:05:56;91869.00;;;12.02;67.84
71057;BME280;58380;48.312;9.246;2023-03-13T19:08:24;91876.97;;;12.11;68.10
71057;BME280;58380;48.312;9.246;2023-03-13T19:10:49;91892.03;;;12.19;68.15
71057;BME280;58380;48.312;9.246;2023-03-13T19:13:15;91883.31;;;12.10;68.46
71057;BME280;58380;48.312;9.246;2023-03-13T19:15:40;91885.19;;;12.09;68.85
71057;BME280;58380;48.312;9.246;2023-03-13T19:18:10;91895.00;;;12.09;69.15
71057;BME280;58380;48.312;9.246;2023-03-13T19:20:35;91904.63;;;12.05;69.31
71057;BME280;58380;48.312;9.246;2023-03-13T19:23:01;91890.78;;;11.99;69.27
71057;BME280;58380;48.312;9.246;2023-03-13T19:25:26;91897.31;;;12.02;69.33
71057;BME280;58380;48.312;9.246;2023-03-13T19:27:53;91880.63;;;11.93;69.49
71057;BME280;58380;48.312;9.246;2023-03-13T19:30:22;91885.91;;;11.84;69.58
71057;BME280;58380;48.312;9.246;2023-03-13T19:32:49;91904.91;;;11.95;69.80
71057;BME280;58380;48.312;9.246;2023-03-13T19:35:15;91906.94;;;11.89;70.39
71057;BME280;58380;48.312;9.246;2023-03-13T19:37:43;91885.38;;;11.64;70.78
71057;BME280;58380;48.312;9.246;2023-03-13T19:40:19;91897.06;;;11.72;71.27
71057;BME280;58380;48.312;9.246;2023-03-13T19:42:47;91867.78;;;11.51;71.86
71057;BME280;58380;48.312;9.246;2023-03-13T19:45:48;91776.16;;;10.80;72.60
71057;BME280;58380;48.312;9.246;2023-03-13T19:48:23;91765.09;;;10.70;73.08
71057;BME280;58380;48.312;9.246;2023-03-13T19:50:56;91827.75;;;10.95;73.31
71057;BME280;58380;48.312;9.246;2023-03-13T19:53:34;91779.50;;;10.64;73.43
71057;BME280;58380;48.312;9.246;2023-03-13T19:56:32;91789.75;;;10.65;74.15
71057;BME280;58380;48.312;9.246;2023-03-13T19:59:42;91853.97;;;10.61;74.73
71057;BME280;58380;48.312;9.246;2023-03-13T20:03:41;91833.91;;;10.51;75.19
71057;BME280;58380;48.312;9.246;2023-03-13T20:15:23;92062.94;;;10.35;78.84
71057;BME280;58380;48.312;9.246;2023-03-13T20:20:27;92094.44;;;9.52;89.48
71057;BME280;58380;48.312;9.246;2023-03-13T20:23:01;92137.59;;;9.18;92.14
71057;BME280;58380;48.312;9.246;2023-03-13T20:25:30;92130.97;;;8.64;97.22
71057;BME280;58380;48.312;9.246;2023-03-13T20:27:58;92251.66;;;9.14;99.76
71057;BME280;58380;48.312;9.246;2023-03-13T20:30:24;92130.69;;;8.41;100.00
71057;BME280;58380;48.312;9.246;2023-03-13T20:32:49;92180.09;;;8.69;100.00
71057;BME280;58380;48.312;9.246;2023-03-13T20:35:15;92183.56;;;8.64;100.00
71057;BME280;58380;48.312;9.246;2023-03-13T20:37:40;92171.53;;;8.58;100.00
71057;BME280;58380;48.312;9.246;2023-03-13T20:40:07;92177.09;;;8.56;100.00
71057;BME280;58380;48.312;9.246;2023-03-13T20:42:36;92237.69;;;8.94;100.00
71057;BME280;58380;48.312;9.246;2023-03-13T20:45:06;92172.94;;;8.50;100.00
71057;BME280;58380;48.312;9.246;2023-03-13T20:47:33;92192.56;;;8.58;100.00
71057;BME280;58380;48.312;9.246;2023-03-13T20:49:59;92178.84;;;8.37;100.00
71057;BME280;58380;48.312;9.246;2023-03-13T20:52:25;92268.09;;;8.81;100.00
71057;BME280;58380;48.312;9.246;2023-03-13T20:54:50;92257.31;;;8.54;100.00
71057;BME280;58380;48.312;9.246;2023-03-13T20:57:15;92323.06;;;8.54;100.00
71057;BME280;58380;48.312;9.246;2023-03-13T20:59:43;92343.25;;;8.24;100.00
71057;BME280;58380;48.312;9.246;2023-03-13T21:02:10;92351.63;;;7.92;100.00
71057;BME280;58380;48.312;9.246;2023-03-13T21:04:36;92351.78;;;7.66;100.00
71057;BME280;58380;48.312;9.246;2023-03-13T21:07:01;92352.88;;;7.55;100.00
71057;BME280;58380;48.312;9.246;2023-03-13T21:09:32;92374.09;;;7.59;100.00
71057;BME280;58380;48.312;9.246;2023-03-13T21:11:59;92368.13;;;7.48;100.00
71057;BME280;58380;48.312;9.246;2023-03-13T21:14:25;92384.91;;;7.57;100.00
71057;BME280;58380;48.312;9.246;2023-03-13T21:16:51;92382.56;;;7.50;100.00
71057;BME280;58380;48.312;9.246;2023-03-13T21:19:16;92370.75;;;7.48;100.00
71057;BME280;58380;48.312;9.246;2023-03-13T21:21:42;92370.50;;;7.49;100.00
71057;BME280;58380;48.312;9.246;2023-03-13T21:24:08;92327.03;;;7.18;100.00
71057;BME280;58380;48.312;9.246;2023-03-13T21:26:36;92270.72;;;6.95;100.00
71057;BME280;58380;48.312;9.246;2023-03-13T21:29:02;92310.19;;;7.24;100.00
71057;BME280;58380;48.312;9.246;2023-03-13T21:31:28;92298.41;;;7.16;100.00
71057;BME280;58380;48.312;9.246;2023-03-13T21:33:54;92246.50;;;7.08;100.00
71057;BME280;58380;48.312;9.246;2023-03-13T21:36:20;92256.19;;;7.18;100.00
71057;BME280;58380;48.312;9.246;2023-03-13T21:38:49;92233.06;;;7.20;100.00
71057;BME280;58380;48.312;9.246;2023-03-13T21:41:18;92209.97;;;7.22;100.00
71057;BME280;58380;48.312;9.246;2023-03-13T21:43:45;92211.28;;;7.24;100.00
71057;BME280;58380;48.312;9.246;2023-03-13T21:46:13;92214.13;;;7.28;100.00
71057;BME280;58380;48.312;9.246;2023-03-13T21:48:42;92199.03;;;7.09;100.00
71057;BME280;58380;48.312;9.246;2023-03-13T21:51:09;92213.22;;;7.03;100.00
71057;BME280;58380;48.312;9.246;2023-03-13T21:53:36;92215.13;;;6.87;100.00
71057;BME280;58380;48.312;9.246;2023-03-13T21:56:03;92196.22;;;6.90;100.00
71057;BME280;58380;48.312;9.246;2023-03-13T21:58:28;92192.75;;;7.00;100.00
71057;BME280;58380;48.312;9.246;2023-03-13T22:00:55;92147.44;;;6.89;100.00
71057;BME280;58380;48.312;9.246;2023-03-13T22:03:22;92138.22;;;6.97;100.00
71057;BME280;58380;48.312;9.246;2023-03-13T22:05:48;92121.44;;;6.93;100.00
71057;BME280;58380;48.312;9.246;2023-03-13T22:08:14;92114.31;;;6.99;100.00
71057;BME280;58380;48.312;9.246;2023-03-13T22:10:45;92073.47;;;6.93;100.00
71057;BME280;58380;48.312;9.246;2023-03-13T22:13:12;92072.69;;;6.92;100.00
71057;BME280;58380;48.312;9.246;2023-03-13T22:15:40;92013.00;;;6.74;100.00
71057;BME280;58380;48.312;9.246;2023-03-13T22:18:12;91994.94;;;6.72;100.00
71057;BME280;58380;48.312;9.246;2023-03-13T22:20:42;91965.66;;;6.60;100.00
71057;BME280;58380;48.312;9.246;2023-03-13T22:23:11;91931.72;;;6.39;100.00
71057;BME280;58380;48.312;9.246;2023-03-13T22:25:41;91993.25;;;6.81;100.00
71057;BME280;58380;48.312;9.246;2023-03-13T22:28:10;91977.09;;;6.74;100.00
71057;BME280;58380;48.312;9.246;2023-03-13T22:30:37;91957.44;;;6.37;100.00
71057;BME280;58380;48.312;9.246;2023-03-13T22:33:04;92038.41;;;6.78;100.00
71057;BME280;58380;48.312;9.246;2023-03-13T22:35:32;92059.78;;;6.96;100.00
71057;BME280;58380;48.312;9.246;2023-03-13T22:38:01;92012.50;;;6.72;100.00